Time;durP1;ratioP1;P1;durP2;ratioP2;P2;SDS_P1;SDS_P2;PMS_P1;PMS_P2;Temp;Humidity;BMP_temperature;BMP_pressure;BME280_temperature;BME280_humidity;BME280_pressure;Samples;Min_cycle;Max_cycle;Signal;HPM_P1;HPM_P2
2021/03/03 00:00:38;;;;;;;27.90;15.63;;;4.70;68.70;;;3.07;62.50;97354.16;4947451;28;20035;-70
2021/03/03 00:03:05;;;;;;;27.55;16.45;;;4.70;69.00;;;3.06;63.09;97356.84;4921898;29;20119;-69
2021/03/03 00:05:30;;;;;;;32.17;15.82;;;4.70;69.10;;;3.01;63.05;97352.00;4949126;28;20073;-70
2021/03/03 00:07:56;;;;;;;29.50;16.90;;;4.70;69.70;;;2.97;63.29;97352.34;4910335;28;20684;-70
2021/03/03 00:10:22;;;;;;;27.20;16.38;;;4.70;69.40;;;2.97;63.67;97341.94;4953249;23;20067;-66
2021/03/03 00:12:48;;;;;;;28.08;15.60;;;4.60;69.50;;;2.95;64.15;97355.06;4938770;28;20094;-65
2021/03/03 00:15:14;;;;;;;26.15;16.13;;;4.70;69.40;;;2.96;63.58;97350.69;4944542;29;20035;-66
2021/03/03 00:17:40;;;;;;;25.95;15.52;;;4.70;69.20;;;2.94;63.86;97348.19;4939757;29;20032;-66
2021/03/03 00:20:06;;;;;;;32.72;15.27;;;4.60;69.40;;;2.90;64.54;97351.94;4932427;29;20066;-67
2021/03/03 00:22:32;;;;;;;27.40;15.93;;;4.60;69.00;;;2.89;63.40;97355.47;4935603;29;20046;-68
2021/03/03 00:24:58;;;;;;;29.33;16.70;;;4.50;69.30;;;2.85;63.27;97351.44;4946082;29;20027;-67
2021/03/03 00:27:23;;;;;;;29.30;16.05;;;4.60;69.90;;;2.82;63.94;97353.44;4935359;28;20035;-68
2021/03/03 00:29:49;;;;;;;29.52;16.40;;;4.50;70.20;;;2.79;63.69;97354.47;4942130;28;20118;-67
2021/03/03 00:32:15;;;;;;;28.60;16.65;;;4.50;70.50;;;2.79;64.48;97356.25;4929001;29;20036;-67
2021/03/03 00:34:41;;;;;;;26.25;16.40;;;4.50;70.20;;;2.77;64.65;97345.97;4924699;29;20107;-67
2021/03/03 00:37:06;;;;;;;27.35;15.90;;;4.50;70.20;;;2.76;64.19;97349.50;4945966;28;20046;-67
2021/03/03 00:39:32;;;;;;;27.65;15.73;;;4.50;70.50;;;2.75;64.43;97348.69;4925316;28;20047;-67
2021/03/03 00:41:58;;;;;;;32.83;17.75;;;4.40;70.70;;;2.68;64.92;97333.63;4945500;28;20032;-67
2021/03/03 00:44:24;;;;;;;42.05;20.95;;;4.40;70.70;;;2.69;65.16;97340.47;4924461;29;20097;-68
2021/03/03 00:46:49;;;;;;;45.47;22.58;;;4.40;71.00;;;2.68;64.85;97336.22;4913383;28;20130;-67
2021/03/03 00:49:15;;;;;;;46.55;22.27;;;4.40;70.90;;;2.68;64.86;97336.22;4938362;28;20035;-65
2021/03/03 00:51:41;;;;;;;49.00;23.90;;;4.40;70.60;;;2.66;64.85;97332.91;4942675;29;20035;-65
2021/03/03 00:54:07;;;;;;;39.33;21.45;;;4.30;71.40;;;2.63;65.71;97326.16;4945986;28;20507;-65
2021/03/03 00:56:32;;;;;;;34.13;19.77;;;4.40;71.70;;;2.65;65.65;97323.47;4941133;29;20047;-65
2021/03/03 00:58:58;;;;;;;36.67;19.95;;;4.40;71.70;;;2.60;65.61;97313.41;4946045;28;20035;-65
2021/03/03 01:01:24;;;;;;;33.40;19.75;;;4.40;71.20;;;2.65;65.69;97323.47;4923376;29;20031;-66
2021/03/03 01:03:50;;;;;;;33.25;20.17;;;4.30;71.40;;;2.62;65.03;97315.88;4944620;28;20070;-66
2021/03/03 01:06:15;;;;;;;33.70;18.90;;;4.30;70.80;;;2.60;65.13;97318.59;4929344;29;20118;-65
2021/03/03 01:08:41;;;;;;;39.45;18.67;;;4.30;70.60;;;2.55;65.41;97319.88;4946352;28;20043;-67
2021/03/03 01:11:08;;;;;;;30.38;18.08;;;4.30;70.90;;;2.56;65.25;97326.72;4929563;29;20211;-67
2021/03/03 01:13:35;;;;;;;41.55;22.00;;;4.30;70.50;;;2.53;65.49;97329.53;4915150;29;20077;-67
2021/03/03 01:16:01;;;;;;;46.05;24.10;;;4.20;70.80;;;2.49;64.92;97325.47;4948686;28;20047;-67
2021/03/03 01:18:26;;;;;;;72.68;36.65;;;4.10;70.90;;;2.44;65.49;97318.84;4916917;29;20091;-67
2021/03/03 01:20:52;;;;;;;82.10;42.28;;;4.10;70.80;;;2.46;65.74;97329.13;4930138;29;20195;-67
2021/03/03 01:23:18;;;;;;;82.93;42.28;;;4.10;70.80;;;2.34;65.53;97310.06;4914117;29;20039;-67
2021/03/03 01:25:44;;;;;;;82.95;43.05;;;4.10;70.30;;;2.37;65.30;97317.63;4942466;29;20031;-68
2021/03/03 01:28:10;;;;;;;86.43;43.90;;;4.10;70.20;;;2.31;66.12;97317.25;4949913;28;20031;-68
2021/03/03 01:30:36;;;;;;;81.80;42.58;;;4.10;70.60;;;2.27;65.64;97316.63;4944028;28;20090;-67
2021/03/03 01:33:02;;;;;;;68.43;36.70;;;4.10;70.40;;;2.25;64.97;97310.69;4935282;29;20581;-67
2021/03/03 01:35:28;;;;;;;53.10;29.27;;;3.90;70.80;;;2.24;66.14;97305.63;4937707;28;20051;-67
2021/03/03 01:37:54;;;;;;;57.90;30.02;;;3.90;70.90;;;2.16;65.66;97298.38;4932619;28;20418;-67
2021/03/03 01:40:19;;;;;;;56.05;28.42;;;3.90;70.90;;;2.18;66.09;97306.88;4925902;29;20055;-67
2021/03/03 01:42:45;;;;;;;44.53;25.20;;;3.90;70.80;;;2.14;65.59;97301.06;4946404;29;20036;-67
2021/03/03 01:45:11;;;;;;;44.00;22.83;;;3.90;71.20;;;2.14;66.11;97306.28;4950263;28;20035;-67
2021/03/03 01:47:37;;;;;;;42.35;23.75;;;3.90;72.00;;;2.11;65.77;97297.88;4932788;29;20118;-68
2021/03/03 01:50:07;;;;;;;42.58;22.98;;;3.80;70.70;;;2.05;67.11;97286.16;4948931;28;20583;-68
2021/03/03 01:52:33;;;;;;;42.17;20.50;;;3.80;70.90;;;2.03;66.35;97298.38;4928660;29;20486;-68
2021/03/03 01:54:59;;;;;;;39.22;21.02;;;3.80;71.30;;;2.00;66.30;97292.59;4933567;29;20134;-65
2021/03/03 01:57:25;;;;;;;43.72;21.33;;;3.80;71.60;;;1.99;66.55;97290.94;4901604;29;20692;-65
2021/03/03 01:59:51;;;;;;;43.35;21.60;;;3.70;71.70;;;1.97;66.32;97292.81;4929931;28;20040;-65
2021/03/03 02:02:17;;;;;;;34.88;20.10;;;3.60;71.40;;;1.91;66.64;97288.88;4938868;29;20051;-67
2021/03/03 02:04:43;;;;;;;33.83;20.15;;;3.60;71.60;;;1.87;66.88;97292.63;4942302;28;20038;-67
2021/03/03 02:07:25;;;;;;;33.72;18.75;;;3.60;71.70;;;1.86;69.63;97305.69;4947240;28;20035;-67
2021/03/03 02:10:02;;;;;;;35.55;19.48;;;3.60;71.60;;;1.81;69.04;97295.63;4930606;28;20042;-67
2021/03/03 02:12:51;;;;;;;33.67;18.83;;;3.60;71.60;;;1.78;69.63;97295.81;4938070;28;20418;-68
2021/03/03 02:15:16;;;;;;;34.13;18.48;;;3.50;71.80;;;1.73;66.72;97296.16;4923840;29;20076;-65
2021/03/03 02:17:42;;;;;;;35.03;18.85;;;3.40;72.20;;;1.68;67.00;97298.22;4897593;29;20039;-65
2021/03/03 02:20:10;;;;;;;32.63;17.90;;;3.40;72.70;;;1.67;67.17;97298.34;4923264;28;20668;-65
2021/03/03 02:23:13;;;;;;;32.70;18.40;;;3.40;72.90;;;1.62;71.02;97292.66;4900685;29;20110;-65
2021/03/03 02:25:39;;;;;;;34.72;18.13;;;3.40;72.80;;;1.57;66.97;97285.16;4896759;29;20044;-66
2021/03/03 02:28:06;;;;;;;32.53;18.15;;;3.30;72.70;;;1.57;67.71;97287.75;4896724;29;20429;-65
2021/03/03 02:30:33;;;;;;;31.58;17.95;;;3.40;72.40;;;1.58;67.32;97297.19;4925460;29;20043;-66
2021/03/03 02:32:59;;;;;;;33.25;18.15;;;3.30;72.40;;;1.55;67.12;97300.00;4930677;29;20035;-65
2021/03/03 02:35:24;;;;;;;32.88;17.73;;;3.30;72.80;;;1.52;67.55;97290.66;4926034;28;20035;-66
2021/03/03 02:37:50;;;;;;;30.25;17.40;;;3.30;72.80;;;1.51;67.19;97293.34;4946161;28;20043;-66
2021/03/03 02:40:16;;;;;;;33.85;17.25;;;3.40;72.80;;;1.49;67.83;97298.66;4915158;29;20070;-66
2021/03/03 02:42:42;;;;;;;30.40;17.30;;;3.30;72.40;;;1.48;67.90;97293.56;4883094;29;20032;-66
2021/03/03 02:45:16;;;;;;;35.15;18.40;;;3.20;72.40;;;1.46;69.22;97292.84;4938945;28;20057;-66
2021/03/03 02:47:42;;;;;;;32.50;16.63;;;3.20;72.50;;;1.40;67.58;97285.47;4928118;28;20031;-66
2021/03/03 02:50:09;;;;;;;32.33;17.52;;;3.20;73.00;;;1.39;68.20;97291.59;4932230;28;20039;-66
2021/03/03 02:52:57;;;;;;;30.15;17.52;;;3.20;73.30;;;1.41;71.46;97305.28;4927327;28;20101;-66
2021/03/03 02:55:25;;;;;;;30.77;16.95;;;3.20;73.20;;;1.36;68.25;97291.78;4947592;29;20311;-66
2021/03/03 02:57:52;;;;;;;28.10;17.25;;;3.10;73.10;;;1.37;68.03;97296.06;4927327;29;20058;-66
2021/03/03 03:00:23;;;;;;;31.08;16.60;;;3.20;73.10;;;1.35;69.79;97290.13;4898328;29;20043;-66
2021/03/03 03:02:49;;;;;;;;;;;3.10;73.30;;;1.36;72.11;97292.66;4913374;29;20047;-66
2021/03/03 03:05:16;;;;;;;27.33;15.77;;;3.20;73.50;;;1.35;67.74;97295.31;4940378;28;19944;-66
2021/03/03 03:07:47;;;;;;;31.27;16.52;;;3.10;73.70;;;1.31;69.60;97299.03;4930701;29;20130;-66
2021/03/03 03:10:14;;;;;;;51.92;28.80;;;3.10;73.90;;;1.31;68.40;97284.31;4930825;29;20463;-65
2021/03/03 03:12:43;;;;;;;132.77;73.18;;;3.10;73.90;;;1.27;69.81;97280.28;4948624;28;20098;-67
2021/03/03 03:15:09;;;;;;;70.95;40.38;;;3.10;74.20;;;1.25;68.87;97276.13;4938690;29;20456;-66
2021/03/03 03:17:35;;;;;;;40.78;25.05;;;3.10;74.60;;;1.28;69.02;97278.50;4912107;29;20066;-66
2021/03/03 03:20:03;;;;;;;29.98;17.70;;;3.10;74.20;;;1.28;68.86;97283.69;4942404;29;20024;-66
2021/03/03 03:22:29;;;;;;;31.92;17.38;;;3.10;73.70;;;1.28;68.74;97288.88;4909537;29;20431;-66
2021/03/03 03:24:56;;;;;;;55.60;32.33;;;3.10;73.40;;;1.28;68.30;97288.88;4948284;29;20043;-66
2021/03/03 03:27:21;;;;;;;89.80;50.00;;;3.00;73.70;;;1.23;68.82;97282.25;4925575;29;20060;-66
2021/03/03 03:29:47;;;;;;;86.22;49.60;;;3.10;73.30;;;1.24;68.95;97280.50;4947101;28;20497;-66
2021/03/03 03:32:13;;;;;;;39.42;23.45;;;3.10;73.60;;;1.20;69.10;97271.25;4949264;28;20285;-66
2021/03/03 03:34:39;;;;;;;35.17;17.25;;;3.10;74.50;;;1.25;69.15;97278.72;4930881;29;20530;-66
2021/03/03 03:37:06;;;;;;;28.98;15.85;;;3.10;74.70;;;1.26;69.85;97280.38;4946929;28;20088;-66
2021/03/03 03:39:32;;;;;;;30.02;15.02;;;3.10;74.90;;;1.27;69.53;97282.03;4941351;29;20090;-66
2021/03/03 03:41:57;;;;;;;32.00;16.45;;;3.10;74.90;;;1.29;69.50;97285.34;4914117;28;20515;-66
2021/03/03 03:44:23;;;;;;;99.03;57.15;;;3.10;75.20;;;1.33;69.95;97279.03;4915932;29;20590;-66
2021/03/03 03:46:49;;;;;;;129.80;75.10;;;3.20;75.20;;;1.31;69.65;97273.13;4928509;29;20047;-66
2021/03/03 03:49:15;;;;;;;73.43;44.35;;;3.20;75.00;;;1.31;69.95;97262.75;4924664;29;20047;-66
2021/03/03 03:51:41;;;;;;;44.17;25.40;;;3.20;74.80;;;1.37;70.06;97277.91;4946413;28;20558;-66
2021/03/03 03:54:08;;;;;;;26.70;15.23;;;3.20;74.60;;;1.39;69.78;97292.44;4948201;28;20035;-66
2021/03/03 03:56:34;;;;;;;28.25;14.38;;;3.10;74.50;;;1.37;69.37;97293.47;4948019;28;20547;-66
2021/03/03 03:59:00;;;;;;;27.17;13.93;;;3.10;74.30;;;1.31;69.44;97291.25;4930751;29;20086;-66
2021/03/03 04:01:26;;;;;;;26.35;14.90;;;3.00;74.10;;;1.29;69.32;97299.16;4948497;28;20035;-66
2021/03/03 04:03:51;;;;;;;25.00;14.70;;;3.00;73.70;;;1.22;69.11;97306.50;4933981;29;20043;-66
2021/03/03 04:06:17;;;;;;;24.77;14.70;;;2.90;73.20;;;1.16;69.14;97300.91;4911874;29;20023;-66
2021/03/03 04:08:43;;;;;;;26.23;14.60;;;2.90;73.10;;;1.14;69.05;97306.19;4902855;29;20420;-66
2021/03/03 04:11:08;;;;;;;26.98;14.80;;;2.90;73.30;;;1.10;69.06;97304.72;4940018;28;20031;-68
2021/03/03 04:13:34;;;;;;;30.40;16.20;;;2.80;73.10;;;1.08;69.02;97304.00;4948069;28;20039;-67
2021/03/03 04:16:00;;;;;;;28.60;15.75;;;2.80;73.10;;;0.99;69.15;97301.19;4945629;28;20071;-66
2021/03/03 04:18:26;;;;;;;30.25;15.45;;;2.70;73.20;;;0.97;69.24;97303.88;4940509;29;20047;-67
2021/03/03 04:20:51;;;;;;;29.70;15.23;;;2.70;73.30;;;0.95;69.42;97302.31;4931327;29;20071;-66
2021/03/03 04:23:17;;;;;;;27.17;16.42;;;2.70;73.30;;;0.89;69.35;97304.34;4933480;29;20047;-66
2021/03/03 04:25:43;;;;;;;31.48;16.77;;;2.60;73.50;;;0.85;69.01;97304.66;4948048;28;20043;-66
2021/03/03 04:28:08;;;;;;;28.77;15.38;;;2.60;73.60;;;0.78;69.17;97306.81;4942930;29;20032;-66
2021/03/03 04:30:35;;;;;;;26.30;14.85;;;2.60;73.40;;;0.67;69.56;97305.84;4943280;28;20027;-67
2021/03/03 04:33:00;;;;;;;24.83;14.88;;;2.50;73.40;;;0.70;69.21;97305.66;4930302;29;20039;-67
2021/03/03 04:35:26;;;;;;;25.73;15.23;;;2.60;73.50;;;0.68;69.52;97310.09;4947779;28;20090;-66
2021/03/03 04:37:52;;;;;;;27.38;15.57;;;2.60;73.50;;;0.67;69.40;97313.59;4943130;28;20035;-66
2021/03/03 04:40:18;;;;;;;29.00;15.40;;;2.50;73.60;;;0.66;69.19;97317.13;4924001;29;20043;-66
2021/03/03 04:42:43;;;;;;;28.67;15.40;;;2.50;73.60;;;0.64;69.31;97313.81;4939371;28;20799;-69
2021/03/03 04:45:09;;;;;;;25.88;14.95;;;2.40;73.70;;;0.61;69.45;97314.84;4919719;29;20540;-66
2021/03/03 04:47:36;;;;;;;28.10;15.07;;;2.50;73.30;;;0.57;69.51;97309.03;4933923;29;20066;-66
2021/03/03 04:50:01;;;;;;;27.52;14.68;;;2.40;73.20;;;0.58;69.37;97310.69;4948728;28;20474;-66
2021/03/03 04:52:27;;;;;;;23.63;14.20;;;2.50;73.20;;;0.53;69.40;97302.38;4944672;29;20035;-66
2021/03/03 04:54:53;;;;;;;27.27;14.30;;;2.50;73.40;;;0.55;69.52;97305.69;4933202;28;20123;-66
2021/03/03 04:57:19;;;;;;;25.05;14.00;;;2.50;73.80;;;0.49;69.88;97294.91;4959630;28;20094;-66
2021/03/03 04:59:44;;;;;;;25.40;14.10;;;2.40;73.50;;;0.52;69.59;97305.06;4954699;28;20048;-66
2021/03/03 05:02:10;;;;;;;24.33;14.30;;;2.40;73.40;;;0.49;69.66;97300.94;4929106;28;20549;-67
2021/03/03 05:04:36;;;;;;;25.73;15.25;;;2.40;73.50;;;0.45;69.71;97298.59;4949790;28;20031;-67
2021/03/03 05:07:02;;;;;;;30.30;16.23;;;2.40;73.60;;;0.45;70.28;97299.44;4943114;29;20046;-68
2021/03/03 05:09:27;;;;;;;31.83;17.23;;;2.30;74.30;;;0.44;70.14;97304.72;4914374;29;20114;-67
2021/03/03 05:11:53;;;;;;;35.67;17.33;;;2.20;75.10;;;0.37;70.05;97291.34;4957444;28;20055;-67
2021/03/03 05:14:19;;;;;;;30.98;16.83;;;2.20;74.80;;;0.41;70.35;97286.78;4924879;29;20415;-67
2021/03/03 05:16:45;;;;;;;32.10;17.05;;;2.30;74.60;;;0.40;70.37;97282.53;4920346;28;20722;-67
2021/03/03 05:19:10;;;;;;;26.55;15.07;;;2.30;74.90;;;0.39;70.43;97284.31;4942424;28;20118;-67
2021/03/03 05:21:36;;;;;;;32.63;16.60;;;2.30;75.00;;;0.44;70.12;97295.19;4933879;28;20056;-67
2021/03/03 05:24:03;;;;;;;33.15;16.60;;;2.30;74.80;;;0.42;70.53;97283.28;4950064;28;20040;-67
2021/03/03 05:26:29;;;;;;;28.30;15.73;;;2.30;74.80;;;0.42;70.50;97283.28;4896854;29;20123;-67
2021/03/03 05:28:55;;;;;;;28.67;15.18;;;2.40;74.50;;;0.43;70.14;97275.41;4946733;29;20035;-67
2021/03/03 05:31:20;;;;;;;28.13;15.48;;;2.40;74.60;;;0.47;70.66;97282.06;4932873;29;20036;-67
2021/03/03 05:33:46;;;;;;;24.50;13.80;;;2.40;75.10;;;0.51;70.71;97272.34;4946321;28;20042;-66
2021/03/03 05:36:12;;;;;;;24.20;13.48;;;2.40;75.70;;;0.55;70.89;97269.47;4924734;29;20031;-67
2021/03/03 05:38:39;;;;;;;25.70;13.88;;;2.50;75.30;;;0.56;71.23;97271.13;4965701;28;20094;-67
2021/03/03 05:41:05;;;;;;;21.65;13.00;;;2.60;75.00;;;0.59;71.10;97270.91;4927703;29;20044;-67
2021/03/03 05:43:32;;;;;;;27.52;13.90;;;2.60;75.20;;;0.65;71.23;97274.88;4894228;29;20503;-67
2021/03/03 05:45:59;;;;;;;22.52;12.48;;;2.60;75.30;;;0.70;71.04;97272.00;4938960;28;20040;-67
2021/03/03 05:48:41;;;;;;;36.30;21.00;;;2.70;75.10;;;0.76;74.12;97281.94;4943575;29;20491;-67
2021/03/03 05:51:08;;;;;;;32.95;19.58;;;2.70;75.40;;;0.79;71.01;97277.41;4949354;28;20039;-67
2021/03/03 05:53:34;;;;;;;43.17;24.70;;;2.70;75.50;;;0.83;71.29;97272.84;4944401;29;20035;-67
2021/03/03 05:56:10;;;;;;;31.10;16.20;;;2.80;75.10;;;0.88;73.28;97270.78;4948054;28;20044;-67
2021/03/03 05:58:39;;;;;;;25.75;14.20;;;2.80;75.10;;;0.86;72.51;97267.47;4929088;29;20039;-67
2021/03/03 06:01:07;;;;;;;25.92;14.02;;;2.80;75.10;;;0.94;71.46;97274.75;4935956;28;20455;-68
2021/03/03 06:03:32;;;;;;;25.40;12.73;;;2.90;74.70;;;0.96;71.49;97276.31;4925113;29;20123;-68
2021/03/03 06:05:58;;;;;;;21.02;13.15;;;2.90;75.00;;;0.97;71.51;97279.72;4918551;29;20031;-69
2021/03/03 06:08:30;;;;;;;25.15;12.70;;;2.90;75.60;;;1.02;73.10;97283.66;4908234;29;20024;-68
2021/03/03 06:10:58;;;;;;;28.05;13.90;;;2.90;75.00;;;1.03;71.30;97274.97;4934531;29;20058;-67
2021/03/03 06:13:24;;;;;;;27.55;15.07;;;3.10;74.60;;;1.13;71.64;97290.72;4924157;29;20093;-66
2021/03/03 06:15:49;;;;;;;22.67;14.13;;;3.10;74.60;;;1.16;71.34;97275.81;4942338;28;20473;-65
2021/03/03 06:18:17;;;;;;;25.02;14.15;;;3.10;74.50;;;1.17;71.61;97269.72;4926439;29;20114;-64
2021/03/03 06:20:45;;;;;;;23.88;14.10;;;3.10;74.40;;;1.23;71.34;97281.41;4921851;29;20650;-70
2021/03/03 06:23:17;;;;;;;25.45;13.65;;;3.20;74.40;;;1.28;73.06;97281.09;4931402;29;20534;-66
2021/03/03 06:25:44;;;;;;;22.25;12.40;;;3.30;74.10;;;1.32;71.02;97279.97;4945958;28;20082;-67
2021/03/03 06:28:10;;;;;;;20.88;12.07;;;3.20;74.00;;;1.33;71.27;97271.25;4960265;28;20436;-67
2021/03/03 06:30:36;;;;;;;21.83;12.20;;;3.30;73.90;;;1.42;71.34;97275.84;4895270;29;20058;-67
2021/03/03 06:33:06;;;;;;;24.38;14.73;;;3.40;73.80;;;1.43;72.10;97267.13;4954493;28;20118;-68
2021/03/03 06:35:36;;;;;;;23.17;12.13;;;3.40;73.70;;;1.52;71.70;97276.88;4931747;29;20511;-66
2021/03/03 06:38:03;;;;;;;22.90;12.55;;;3.50;73.50;;;1.57;71.54;97273.94;4951944;28;20707;-66
2021/03/03 06:40:28;;;;;;;24.80;13.35;;;3.60;73.00;;;1.65;70.92;97271.69;4938887;28;20521;-66
2021/03/03 06:42:55;;;;;;;22.60;13.18;;;3.70;72.90;;;1.72;71.01;97278.94;4960674;28;20043;-66
2021/03/03 06:45:31;;;;;;;21.58;12.45;;;3.80;72.80;;;1.82;72.82;97269.59;4928487;28;20395;-67
2021/03/03 06:48:00;;;;;;;22.35;12.00;;;4.00;72.50;;;1.91;71.78;97272.47;4953119;28;20038;-64
2021/03/03 06:50:36;;;;;;;20.88;12.10;;;4.10;72.20;;;2.01;72.00;97283.88;4952318;28;20114;-67
2021/03/03 06:53:01;;;;;;;20.88;12.35;;;4.10;71.80;;;2.05;70.55;97273.19;4942604;29;20143;-65
2021/03/03 06:55:48;;;;;;;20.80;12.35;;;4.30;71.40;;;2.22;72.13;97284.94;4929805;28;20153;-64
2021/03/03 06:58:32;;;;;;;23.58;12.38;;;4.50;70.70;;;2.31;72.12;97283.50;4934325;29;20086;-64
2021/03/03 07:00:58;;;;;;;21.05;12.35;;;4.50;70.60;;;2.39;70.34;97287.19;4947411;29;20023;-65
2021/03/03 07:03:42;;;;;;;21.15;11.82;;;4.60;70.00;;;2.46;70.94;97285.81;4925943;29;20059;-66
2021/03/03 07:06:08;;;;;;;22.85;12.32;;;4.60;69.40;;;2.50;69.36;97290.81;4935571;29;20046;-63
2021/03/03 07:08:33;;;;;;;25.55;12.30;;;4.60;69.50;;;2.53;69.76;97290.59;4942247;29;20032;-63
2021/03/03 07:10:59;;;;;;;46.35;24.27;;;4.70;69.40;;;2.59;69.80;97287.53;4931442;29;20032;-64
2021/03/03 07:13:40;;;;;;;22.90;13.45;;;4.70;69.20;;;2.62;70.09;97293.34;4912454;29;20086;-65
2021/03/03 07:16:07;;;;;;;19.63;11.77;;;4.70;68.10;;;2.67;69.24;97293.00;4949703;28;20456;-66
2021/03/03 07:18:34;;;;;;;19.45;11.07;;;4.80;68.20;;;2.73;69.36;97298.59;4900634;29;20035;-64
2021/03/03 07:21:00;;;;;;;18.83;10.52;;;5.00;67.60;;;2.82;68.92;97297.09;4933978;28;20036;-64
2021/03/03 07:23:46;;;;;;;15.52;9.75;;;5.10;67.40;;;2.91;69.30;97309.41;4952380;28;20116;-67
2021/03/03 07:26:12;;;;;;;19.02;10.77;;;5.20;66.90;;;3.03;68.69;97305.09;4955655;28;20031;-65
2021/03/03 07:28:39;;;;;;;19.27;10.60;;;5.60;65.60;;;3.19;69.09;97299.59;4950461;28;20040;-64
2021/03/03 07:31:09;;;;;;;18.40;10.75;;;5.80;64.50;;;3.30;69.03;97303.06;4958541;28;20069;-64
2021/03/03 07:33:34;;;;;;;19.90;10.98;;;5.80;63.80;;;3.39;67.77;97291.13;4959710;28;20129;-65
2021/03/03 07:36:02;;;;;;;19.17;10.23;;;5.80;63.50;;;3.51;67.89;97298.00;4936906;28;20049;-65
2021/03/03 07:38:31;;;;;;;22.80;11.38;;;5.90;63.30;;;3.61;67.60;97298.97;4951785;28;20077;-64
2021/03/03 07:41:05;;;;;;;17.05;9.75;;;6.40;62.70;;;3.83;67.08;97294.72;4951263;28;20032;-65
2021/03/03 07:43:31;;;;;;;17.92;9.88;;;6.70;61.10;;;4.02;66.70;97301.94;4926247;29;20039;-64
2021/03/03 07:45:59;;;;;;;20.77;9.93;;;6.80;60.00;;;4.19;66.69;97297.09;4930930;29;20094;-66
2021/03/03 07:48:24;;;;;;;17.13;10.45;;;7.10;60.00;;;4.42;66.31;97294.47;4922082;29;20090;-65
2021/03/03 07:50:50;;;;;;;20.75;12.27;;;7.60;58.30;;;4.71;66.41;97295.56;4933845;28;20735;-65
2021/03/03 07:53:16;;;;;;;19.83;11.85;;;8.20;56.80;;;4.99;65.77;97301.19;4946946;28;20607;-65
2021/03/03 07:55:42;;;;;;;19.13;12.10;;;8.40;55.20;;;5.24;65.56;97290.38;4937223;29;20482;-64
2021/03/03 07:58:08;;;;;;;20.17;12.65;;;8.60;55.00;;;5.51;64.52;97298.53;4963907;28;20043;-65
2021/03/03 08:00:36;;;;;;;17.90;11.63;;;8.50;55.10;;;5.70;63.94;97292.59;4950566;28;20499;-64
2021/03/03 08:03:02;;;;;;;19.50;12.35;;;8.50;54.60;;;5.87;64.22;97293.75;4956309;28;20039;-65
2021/03/03 08:05:46;;;;;;;23.95;14.50;;;8.90;53.90;;;6.12;62.10;97292.56;4949725;28;20199;-64
2021/03/03 08:08:26;;;;;;;17.20;10.20;;;9.70;51.40;;;6.35;61.46;97283.56;4929859;29;20031;-65
2021/03/03 08:10:57;;;;;;;17.15;9.48;;;10.00;50.20;;;6.63;61.34;97283.75;4926734;28;20380;-65
2021/03/03 08:13:34;;;;;;;12.52;8.55;;;10.10;49.60;;;6.83;59.88;97281.97;4932392;29;20126;-65
2021/03/03 08:16:04;;;;;;;14.48;8.93;;;10.10;49.70;;;6.95;60.57;97281.69;4921210;28;20407;-65
2021/03/03 08:18:31;;;;;;;19.67;10.00;;;10.10;49.60;;;7.04;60.68;97275.66;4943899;28;20507;-65
2021/03/03 08:21:07;;;;;;;13.25;8.48;;;10.00;49.80;;;7.14;60.15;97280.88;4939605;28;20471;-66
2021/03/03 08:23:33;;;;;;;16.95;9.30;;;10.00;48.80;;;7.15;59.54;97282.53;4943912;28;20042;-65
2021/03/03 08:26:28;;;;;;;16.27;9.25;;;9.70;49.20;;;7.13;56.33;97274.00;4950132;28;20134;-65
2021/03/03 08:29:15;;;;;;;20.75;10.65;;;9.60;49.30;;;7.13;57.24;97278.41;4949010;28;20105;-64
2021/03/03 08:31:41;;;;;;;13.02;8.52;;;9.60;49.70;;;7.09;59.36;97277.84;4926767;29;20032;-64
2021/03/03 08:34:10;;;;;;;17.95;8.05;;;9.60;49.90;;;7.16;58.88;97284.19;4914603;29;20047;-65
2021/03/03 08:36:36;;;;;;;13.68;9.13;;;9.60;49.10;;;7.15;59.11;97279.91;4924917;29;20114;-65
2021/03/03 08:39:02;;;;;;;13.23;8.57;;;9.70;49.80;;;7.20;58.34;97284.72;4954323;28;20023;-64
2021/03/03 08:41:35;;;;;;;13.95;9.27;;;9.80;49.70;;;7.29;58.27;97287.34;4955855;28;20170;-66
2021/03/03 08:44:01;;;;;;;16.40;8.25;;;10.10;50.00;;;7.45;57.85;97280.69;4910874;28;20124;-66
2021/03/03 08:46:29;;;;;;;17.13;9.02;;;10.40;49.00;;;7.60;57.77;97274.88;4950174;28;20027;-68
2021/03/03 08:48:55;;;;;;;16.25;9.18;;;10.70;48.10;;;7.71;58.04;97271.28;4950630;28;20127;-65
2021/03/03 08:51:28;;;;;;;14.15;8.32;;;10.80;46.50;;;7.84;56.56;97266.53;4950309;28;20115;-65
2021/03/03 08:53:58;;;;;;;13.80;8.73;;;10.90;45.80;;;7.98;56.41;97266.09;4918184;29;20058;-67
2021/03/03 08:56:40;;;;;;;18.08;9.00;;;11.10;45.80;;;8.16;54.50;97268.78;4921637;29;20040;-65
2021/03/03 08:59:33;;;;;;;13.35;7.65;;;11.20;45.50;;;8.32;54.50;97273.38;4950845;28;20035;-67
2021/03/03 09:02:03;;;;;;;14.82;8.82;;;11.50;45.50;;;8.50;55.49;97269.03;4942525;28;20130;-67
2021/03/03 09:04:40;;;;;;;16.45;8.43;;;11.50;45.50;;;8.64;54.69;97274.75;4939845;29;20130;-65
2021/03/03 09:07:27;;;;;;;26.38;12.38;;;11.50;45.70;;;8.72;54.05;97270.41;4950092;28;20053;-64
2021/03/03 09:09:54;;;;;;;14.95;9.20;;;11.60;45.80;;;8.87;55.63;97273.34;4948442;28;20070;-63
2021/03/03 09:12:22;;;;;;;14.32;7.75;;;12.00;45.50;;;9.01;55.38;97275.44;4931505;29;20095;-66
2021/03/03 09:14:49;;;;;;;14.00;8.25;;;12.10;44.70;;;9.11;54.46;97270.97;4930438;29;20085;-64
2021/03/03 09:17:21;;;;;;;11.85;7.45;;;12.10;43.40;;;9.28;53.05;97269.31;4956704;28;20058;-63
2021/03/03 09:19:47;;;;;;;12.20;7.10;;;12.30;43.00;;;9.41;54.54;97269.72;4932116;29;20040;-67
2021/03/03 09:22:24;;;;;;;12.32;7.40;;;12.40;43.20;;;9.54;52.28;97268.50;4940551;29;20031;-62
2021/03/03 09:24:55;;;;;;;11.98;7.03;;;12.30;42.70;;;9.55;51.49;97270.97;4948492;28;20047;-63
2021/03/03 09:27:21;;;;;;;10.75;6.97;;;12.20;42.30;;;9.59;53.00;97269.69;4941762;29;20039;-64
2021/03/03 09:29:48;;;;;;;12.00;7.10;;;12.10;42.00;;;9.60;52.96;97262.63;4900693;29;20043;-66
2021/03/03 09:32:21;;;;;;;12.85;6.88;;;12.20;43.30;;;9.68;52.02;97263.50;4940040;28;20031;-65
2021/03/03 09:35:04;;;;;;;12.57;7.15;;;12.40;43.20;;;9.74;51.18;97251.56;4953418;28;20083;-63
2021/03/03 09:37:46;;;;;;;13.40;7.68;;;12.50;43.00;;;9.92;51.68;97259.34;4961498;28;20039;-63
2021/03/03 09:40:14;;;;;;;15.32;7.90;;;12.80;43.50;;;10.07;51.74;97257.78;4962155;28;20039;-63
2021/03/03 09:42:48;;;;;;;13.25;7.68;;;13.00;43.40;;;10.23;51.60;97257.91;4956474;28;20119;-65
2021/03/03 09:45:23;;;;;;;12.82;7.85;;;13.20;43.60;;;10.39;51.26;97257.94;4950002;28;20041;-65
2021/03/03 09:47:49;;;;;;;18.30;9.15;;;13.40;42.90;;;10.57;51.73;97257.03;4950068;28;20036;-66
2021/03/03 09:50:23;;;;;;;12.55;7.18;;;13.60;41.60;;;10.70;50.34;97254.75;4928504;29;20065;-66
2021/03/03 09:52:53;;;;;;;14.32;6.70;;;13.70;41.00;;;10.85;51.10;97257.56;4951390;28;20166;-65
2021/03/03 09:55:23;;;;;;;12.50;6.25;;;14.00;40.10;;;11.01;51.05;97257.59;4943287;29;20051;-66
2021/03/03 09:57:56;;;;;;;9.82;6.53;;;14.20;39.00;;;11.24;48.42;97242.81;4935048;28;20042;-64
2021/03/03 10:00:27;;;;;;;11.32;5.82;;;14.50;38.40;;;11.41;48.24;97248.88;4927256;29;20035;-65
2021/03/03 10:03:13;;;;;;;13.68;6.68;;;14.60;37.70;;;11.53;48.93;97242.28;4951158;28;20233;-65
2021/03/03 10:05:39;;;;;;;10.95;6.50;;;14.80;37.70;;;11.60;49.79;97245.91;4931042;29;20039;-67
2021/03/03 10:08:09;;;;;;;11.00;6.53;;;14.40;37.40;;;11.65;47.31;97251.50;4931741;28;20067;-66
2021/03/03 10:10:40;;;;;;;10.00;6.80;;;14.60;37.10;;;11.85;46.99;97259.06;4926963;29;20055;-69
2021/03/03 10:13:06;;;;;;;11.35;6.40;;;15.00;36.30;;;11.94;47.75;97250.13;4949571;29;20058;-66
2021/03/03 10:15:37;;;;;;;9.18;6.32;;;14.80;36.50;;;12.01;46.20;97251.13;4944568;28;20031;-66
2021/03/03 10:18:09;;;;;;;10.73;5.88;;;15.10;35.70;;;12.11;44.86;97250.91;4919153;28;20042;-66
2021/03/03 10:20:49;;;;;;;9.13;6.65;;;14.90;36.10;;;12.19;44.43;97253.53;4962663;28;20118;-66
2021/03/03 10:23:19;;;;;;;12.30;6.43;;;15.10;35.80;;;12.26;46.44;97249.22;4939480;28;20101;-65
2021/03/03 10:26:07;;;;;;;11.80;5.85;;;15.20;36.40;;;12.39;45.02;97235.47;4961071;28;20047;-66